Cashiers, North Carolina
Current Conditions -  °F | °C
As of 2:55 AM on Saturday 01 Nov 2014 (Local Time) from KLQK Reporting Station
Light Rain Light Rain  
Wind Chill: 35°   Ceiling: 2000
Heat Index: 39°   Visibility: 10mi
Dew Point: 36°   Wind: 6mph
Humidity: 88%   Direction: 30°NNE
Pressure: 29.78"   Gusts: NA
Location:  35.11°N, 83.1°W
Report Text: KLQK 010655Z AUTO 03005KT 10SM -RA OVC020 04/02 A2978 RMK AO2 T00390021
Loading
Personal Weather Stations






























Interactive Weather Map New forecast layout! Learn more

10-Day Weather Forecast

Advertisements
Track Severe Weather on mobile